Time;durP1;ratioP1;P1;durP2;ratioP2;P2;SDS_P1;SDS_P2;PMS_P1;PMS_P2;Temp;Humidity;BMP_temperature;BMP_pressure;BME280_temperature;BME280_humidity;BME280_pressure;Samples;Min_cycle;Max_cycle;Signal;HPM_P1;HPM_P2
2022/09/03 00:00:07;;;;;;;;;;;20.00;99.90;20.10;99175.00;;;;339183;28;85662;-89
2022/09/03 00:00:24;;;;;;;;;;;20.00;99.90;20.10;99171.00;;;;339537;28;82521;-89
2022/09/03 00:00:36;;;;;;;;;;;20.00;99.90;20.10;99169.00;;;;338212;28;86202;-89
2022/09/03 00:00:51;;;;;;;;;;;20.00;99.90;20.10;99170.00;;;;341007;28;83504;-89
2022/09/03 00:01:07;;;;;;;;;;;20.00;99.90;20.00;99174.00;;;;340597;28;85638;-89
2022/09/03 00:01:24;;;;;;;;;;;20.00;99.90;20.00;99177.00;;;;343437;28;83531;-89
2022/09/03 00:01:39;;;;;;;;;;;20.00;99.90;20.00;99183.00;;;;339595;28;87352;-89
2022/09/03 00:01:57;;;;;;;;;;;20.00;99.90;20.10;99176.00;;;;344911;28;82459;-89
2022/09/03 00:02:32;;;;;;;;;;;20.00;99.90;20.00;99173.00;;;;340676;28;85550;-89
2022/09/03 00:02:51;;;;;;;;;;;20.00;99.90;20.00;99185.00;;;;342001;28;83539;-89
2022/09/03 00:03:40;;;;;;;;;;;20.00;99.90;20.00;99183.00;;;;341919;28;84926;-89
2022/09/03 00:03:57;;;;;;;;;;;20.00;99.90;20.00;99191.00;;;;336769;28;83318;-88
2022/09/03 00:04:18;;;;;;;;;;;20.00;99.90;20.10;99187.00;;;;339203;28;85228;-89
2022/09/03 00:04:57;;;;;;;;;;;20.00;99.90;20.20;99184.00;;;;340423;28;83548;-89
2022/09/03 00:05:28;;;;;;;;;;;20.00;99.90;20.00;99186.00;;;;340909;28;86901;-89
2022/09/03 00:06:08;;;;;;;;;;;20.00;99.90;20.00;99188.00;;;;342402;28;83191;-89
2022/09/03 00:06:27;;;;;;;;;;;20.00;99.90;20.00;99179.00;;;;340883;28;87484;-89
2022/09/03 00:06:45;;;;;;;;;;;20.00;99.90;20.00;99177.00;;;;344561;28;83362;-89
2022/09/03 00:07:00;;;;;;;;;;;20.00;99.90;20.00;99182.00;;;;341940;28;85232;-89
2022/09/03 00:07:19;;;;;;;;;;;20.00;99.90;20.00;99181.00;;;;340360;28;83616;-89
2022/09/03 00:07:36;;;;;;;;;;;20.00;99.90;20.00;99176.00;;;;343304;28;85064;-89
2022/09/03 00:08:13;;;;;;;;;;;20.00;99.90;20.00;99185.00;;;;343302;28;82620;-88
2022/09/03 00:08:37;;;;;;;;;;;20.00;99.90;20.00;99177.00;;;;340509;28;85590;-89
2022/09/03 00:09:06;;;;;;;;;;;20.00;99.90;20.00;99186.00;;;;344543;28;83427;-89
2022/09/03 00:09:46;;;;;;;;;;;20.00;99.90;20.00;99177.00;;;;343523;28;85309;-90
2022/09/03 00:10:04;;;;;;;;;;;20.00;99.90;20.10;99179.00;;;;341551;28;82400;-89
2022/09/03 00:10:28;;;;;;;;;;;20.00;99.90;20.20;99178.00;;;;341927;28;86113;-89
2022/09/03 00:10:57;;;;;;;;;;;20.00;99.90;20.10;99167.00;;;;344552;28;83366;-89
2022/09/03 00:11:24;;;;;;;;;;;20.00;99.90;20.20;99173.00;;;;341833;28;86324;-89
2022/09/03 00:12:00;;;;;;;;;;;20.00;99.90;20.10;99175.00;;;;343473;28;83213;-89
2022/09/03 00:12:23;;;;;;;;;;;20.00;99.90;20.20;99178.00;;;;344546;28;86333;-89
2022/09/03 00:12:38;;;;;;;;;;;20.00;99.90;20.20;99171.00;;;;341965;28;83537;-89
2022/09/03 00:12:51;;;;;;;;;;;20.00;99.90;20.10;99168.00;;;;341713;28;86338;-88
2022/09/03 00:13:03;;;;;;;;;;;20.00;99.90;20.10;99168.00;;;;341963;28;83514;-89
2022/09/03 00:13:19;;;;;;;;;;;20.00;99.90;20.20;99170.00;;;;340500;28;86522;-89
2022/09/03 00:13:39;;;;;;;;;;;20.00;99.90;20.10;99173.00;;;;343393;28;83315;-89
2022/09/03 00:14:02;;;;;;;;;;;20.00;99.90;20.20;99166.00;;;;340353;28;86197;-89
2022/09/03 00:14:18;;;;;;;;;;;20.10;99.90;20.20;99166.00;;;;341791;28;83463;-89
2022/09/03 00:14:35;;;;;;;;;;;20.00;99.90;20.20;99162.00;;;;343048;28;85586;-89
2022/09/03 00:15:06;;;;;;;;;;;20.10;99.90;20.20;99169.00;;;;340589;28;83302;-89
2022/09/03 00:15:19;;;;;;;;;;;20.00;99.90;20.20;99164.00;;;;342936;28;85087;-89
2022/09/03 00:15:32;;;;;;;;;;;20.00;99.90;20.20;99159.00;;;;343249;28;82586;-89
2022/09/03 00:15:43;;;;;;;;;;;20.10;99.90;20.20;99156.00;;;;341756;28;85999;-89
2022/09/03 00:15:56;;;;;;;;;;;20.10;99.90;20.20;99168.00;;;;340430;28;82768;-89
2022/09/03 00:16:10;;;;;;;;;;;20.00;99.90;20.10;99162.00;;;;343110;28;87903;-89
2022/09/03 00:16:23;;;;;;;;;;;20.00;99.90;20.10;99160.00;;;;344516;28;83779;-88
2022/09/03 00:16:48;;;;;;;;;;;20.00;99.90;20.10;99164.00;;;;341779;28;85838;-89
2022/09/03 00:17:04;;;;;;;;;;;20.00;99.90;20.10;99156.00;;;;343084;28;83783;-89
2022/09/03 00:17:21;;;;;;;;;;;20.10;99.90;20.10;99162.00;;;;344327;28;86734;-88
2022/09/03 00:17:41;;;;;;;;;;;20.00;99.90;20.10;99156.00;;;;342064;28;83455;-88
2022/09/03 00:18:00;;;;;;;;;;;20.00;99.90;20.10;99158.00;;;;343060;28;85935;-89
2022/09/03 00:18:15;;;;;;;;;;;20.00;99.90;20.10;99156.00;;;;343243;28;83316;-89
2022/09/03 00:18:29;;;;;;;;;;;20.10;99.90;20.10;99156.00;;;;341959;28;87514;-89
2022/09/03 00:18:43;;;;;;;;;;;20.00;99.90;20.10;99156.00;;;;340859;28;83331;-89
2022/09/03 00:18:58;;;;;;;;;;;20.00;99.90;20.10;99156.00;;;;341682;28;85308;-89
2022/09/03 00:19:10;;;;;;;;;;;20.00;99.90;20.10;99152.00;;;;343464;28;83178;-89
2022/09/03 00:19:26;;;;;;;;;;;20.10;99.90;20.10;99153.00;;;;340479;28;83938;-88
2022/09/03 00:20:20;;;;;;;;;;;20.10;99.90;20.10;99147.00;;;;344729;28;82337;-89
2022/09/03 00:20:40;;;;;;;;;;;20.00;99.90;20.00;99149.00;;;;341871;28;83691;-88
2022/09/03 00:20:58;;;;;;;;;;;20.10;99.90;20.00;99144.00;;;;343229;28;82502;-89
2022/09/03 00:21:31;;;;;;;;;;;20.00;99.90;20.00;99151.00;;;;342970;28;86660;-89
2022/09/03 00:21:44;;;;;;;;;;;20.10;99.90;20.10;99148.00;;;;343236;28;83345;-89
2022/09/03 00:21:59;;;;;;;;;;;20.00;99.90;20.10;99152.00;;;;344245;28;85862;-89
2022/09/03 00:22:26;;;;;;;;;;;20.00;99.90;20.10;99153.00;;;;341856;28;82493;-89
2022/09/03 00:22:43;;;;;;;;;;;20.00;99.90;20.10;99148.00;;;;341681;28;86523;-89
2022/09/03 00:22:57;;;;;;;;;;;20.00;99.90;20.00;99141.00;;;;341894;28;83501;-89
2022/09/03 00:23:14;;;;;;;;;;;20.00;99.90;20.00;99148.00;;;;340585;28;85095;-89
2022/09/03 00:23:27;;;;;;;;;;;20.00;99.90;20.00;99149.00;;;;344888;28;83357;-89
2022/09/03 00:23:41;;;;;;;;;;;20.00;99.90;20.00;99149.00;;;;344755;28;83700;-89
2022/09/03 00:23:52;;;;;;;;;;;20.00;99.90;20.00;99144.00;;;;342102;28;82349;-88
2022/09/03 00:24:06;;;;;;;;;;;20.00;99.90;20.00;99146.00;;;;343254;28;82891;-89
2022/09/03 00:24:30;;;;;;;;;;;20.00;99.90;20.00;99150.00;;;;341842;28;83512;-89
2022/09/03 00:24:41;;;;;;;;;;;20.00;99.90;20.10;99149.00;;;;343245;28;85388;-88
2022/09/03 00:24:53;;;;;;;;;;;20.00;99.90;20.10;99147.00;;;;347388;28;82359;-90
2022/09/03 00:25:09;;;;;;;;;;;20.00;99.90;20.10;99146.00;;;;341649;28;86440;-89
2022/09/03 00:25:38;;;;;;;;;;;20.00;99.90;20.10;99148.00;;;;340737;28;82441;-89
2022/09/03 00:26:13;;;;;;;;;;;20.00;99.90;20.10;99142.00;;;;344429;28;86044;-89
2022/09/03 00:26:27;;;;;;;;;;;20.00;99.90;20.00;99147.00;;;;342111;28;83193;-89
2022/09/03 00:26:41;;;;;;;;;;;20.00;99.90;20.00;99147.00;;;;341638;28;86306;-89
2022/09/03 00:26:56;;;;;;;;;;;20.00;99.90;20.00;99141.00;;;;339318;28;82327;-89
2022/09/03 00:27:22;;;;;;;;;;;20.00;99.90;20.10;99142.00;;;;345835;28;85303;-89
2022/09/03 00:27:36;;;;;;;;;;;20.00;99.90;20.10;99143.00;;;;340647;28;83392;-89
2022/09/03 00:27:50;;;;;;;;;;;20.00;99.90;20.10;99139.00;;;;343561;28;84391;-88
2022/09/03 00:28:06;;;;;;;;;;;20.00;99.90;20.10;99139.00;;;;341940;28;83518;-89
2022/09/03 00:28:24;;;;;;;;;;;20.00;99.90;20.10;99136.00;;;;342116;28;85616;-89
2022/09/03 00:28:59;;;;;;;;;;;20.00;99.90;20.00;99138.00;;;;344828;28;82376;-89
2022/09/03 00:29:20;;;;;;;;;;;20.00;99.90;20.00;99141.00;;;;339494;28;84381;-89
2022/09/03 00:29:55;;;;;;;;;;;20.00;99.90;20.00;99140.00;;;;340684;28;83426;-88
2022/09/03 00:30:11;;;;;;;;;;;20.00;99.90;20.00;99147.00;;;;339140;28;87718;-89
2022/09/03 00:30:29;;;;;;;;;;;20.00;99.90;20.00;99144.00;;;;340497;28;83494;-88
2022/09/03 00:30:41;;;;;;;;;;;20.00;99.90;19.90;99137.00;;;;341759;28;85638;-89
2022/09/03 00:31:25;;;;;;;;;;;20.00;99.90;19.90;99143.00;;;;336761;28;83465;-89
2022/09/03 00:31:50;;;;;;;;;;;20.00;99.90;19.90;99128.00;;;;337968;28;86756;-90
2022/09/03 00:32:07;;;;;;;;;;;20.00;99.90;19.90;99137.00;;;;340875;28;83855;-90
2022/09/03 00:32:40;;;;;;;;;;;20.00;99.90;19.90;99129.00;;;;337961;28;85345;-89
2022/09/03 00:33:00;;;;;;;;;;;20.00;99.90;20.00;99139.00;;;;339215;28;82491;-89
2022/09/03 00:33:23;;;;;;;;;;;20.00;99.90;20.00;99130.00;;;;337766;28;86536;-89
2022/09/03 00:33:35;;;;;;;;;;;20.00;99.90;20.00;99130.00;;;;336830;28;82291;-88
2022/09/03 00:33:47;;;;;;;;;;;20.00;99.90;20.00;99136.00;;;;337954;28;84160;-89
2022/09/03 00:34:01;;;;;;;;;;;20.00;99.90;20.00;99126.00;;;;339304;28;82446;-89
2022/09/03 00:34:29;;;;;;;;;;;20.00;99.90;20.00;99129.00;;;;338004;28;85403;-89
2022/09/03 00:34:43;;;;;;;;;;;20.00;99.90;20.00;99130.00;;;;337999;28;82489;-89
2022/09/03 00:35:01;;;;;;;;;;;20.00;99.90;20.00;99134.00;;;;339158;28;85923;-89
2022/09/03 00:35:23;;;;;;;;;;;20.00;99.90;20.00;99128.00;;;;341622;28;84323;-89
2022/09/03 00:35:46;;;;;;;;;;;20.00;99.90;20.00;99129.00;;;;340743;28;85421;-89
2022/09/03 00:36:00;;;;;;;;;;;20.00;99.90;20.00;99127.00;;;;340644;28;83390;-89
2022/09/03 00:36:22;;;;;;;;;;;20.00;99.90;20.00;99128.00;;;;341725;28;86674;-89
2022/09/03 00:36:42;;;;;;;;;;;20.00;99.90;20.00;99128.00;;;;340413;28;83497;-89
2022/09/03 00:36:54;;;;;;;;;;;20.00;99.90;20.00;99130.00;;;;340408;28;86289;-89
2022/09/03 00:37:09;;;;;;;;;;;20.00;99.90;20.10;99127.00;;;;340586;28;82515;-88
2022/09/03 00:37:28;;;;;;;;;;;20.00;99.90;20.10;99124.00;;;;342267;28;83595;-89
2022/09/03 00:37:51;;;;;;;;;;;20.00;99.90;20.10;99129.00;;;;339335;28;83500;-89
2022/09/03 00:38:03;;;;;;;;;;;20.00;99.90;20.10;99127.00;;;;340580;28;86437;-88
2022/09/03 00:38:14;;;;;;;;;;;20.00;99.90;20.10;99135.00;;;;340484;28;83410;-89
2022/09/03 00:38:28;;;;;;;;;;;20.00;99.90;20.10;99132.00;;;;340439;28;86137;-89
2022/09/03 00:38:40;;;;;;;;;;;20.00;99.90;20.10;99131.00;;;;343279;28;83588;-89
2022/09/03 00:38:52;;;;;;;;;;;20.00;99.90;20.10;99124.00;;;;340460;28;86543;-89
2022/09/03 00:39:06;;;;;;;;;;;20.00;99.90;20.10;99136.00;;;;340566;28;82567;-89
2022/09/03 00:39:19;;;;;;;;;;;20.00;99.90;20.10;99130.00;;;;339212;28;85184;-89
2022/09/03 00:39:31;;;;;;;;;;;20.00;99.90;20.10;99134.00;;;;340445;28;83400;-89
2022/09/03 00:39:43;;;;;;;;;;;20.00;99.90;20.10;99127.00;;;;340645;28;87792;-90
2022/09/03 00:39:55;;;;;;;;;;;20.00;99.90;20.10;99132.00;;;;341848;28;82523;-89
2022/09/03 00:40:13;;;;;;;;;;;20.00;99.90;20.10;99129.00;;;;339299;28;85895;-89
2022/09/03 00:40:50;;;;;;;;;;;20.00;99.90;20.20;99123.00;;;;342234;28;83440;-89
2022/09/03 00:41:30;;;;;;;;;;;20.00;99.90;20.20;99127.00;;;;343709;28;83732;-89
2022/09/03 00:42:23;;;;;;;;;;;20.00;99.90;20.20;99126.00;;;;340623;28;83594;-89
2022/09/03 00:42:35;;;;;;;;;;;20.00;99.90;20.20;99126.00;;;;335027;29;85281;-89
2022/09/03 00:43:11;;;;;;;;;;;20.10;99.90;20.30;99126.00;;;;336552;28;83485;-89
2022/09/03 00:43:47;;;;;;;;;;;20.00;99.90;20.30;99131.00;;;;333908;29;85939;-89
2022/09/03 00:44:12;;;;;;;;;;;20.10;99.90;20.10;99127.00;;;;333162;29;83538;-89
2022/09/03 00:44:43;;;;;;;;;;;20.10;99.90;20.20;99124.00;;;;332638;29;86050;-89
2022/09/03 00:44:55;;;;;;;;;;;20.00;99.90;20.10;99128.00;;;;334270;29;82628;-89
2022/09/03 00:45:33;;;;;;;;;;;20.00;99.90;20.10;99127.00;;;;333982;29;86396;-89
2022/09/03 00:45:56;;;;;;;;;;;20.00;99.90;20.10;99134.00;;;;330249;29;83801;-88
2022/09/03 00:46:18;;;;;;;;;;;20.00;99.90;20.10;99134.00;;;;330007;29;85707;-89
2022/09/03 00:46:51;;;;;;;;;;;20.10;99.90;20.00;99132.00;;;;332762;29;82671;-88
2022/09/03 00:47:17;;;;;;;;;;;20.10;99.90;20.00;99130.00;;;;331327;29;85804;-89
2022/09/03 00:47:36;;;;;;;;;;;20.00;99.90;20.10;99123.00;;;;334540;29;82385;-90
2022/09/03 00:48:05;;;;;;;;;;;20.10;99.90;20.00;99128.00;;;;334217;29;85177;-89
2022/09/03 00:48:21;;;;;;;;;;;20.00;99.90;20.00;99125.00;;;;332813;29;82571;-89
2022/09/03 00:49:18;;;;;;;;;;;20.00;99.90;19.90;99121.00;;;;328917;29;87988;-89
2022/09/03 00:49:41;;;;;;;;;;;20.00;99.90;19.90;99121.00;;;;328768;29;82705;-89
2022/09/03 00:50:01;;;;;;;;;;;20.00;99.90;20.00;99123.00;;;;331546;29;83361;-89
2022/09/03 00:50:35;;;;;;;;;;;20.00;99.90;19.90;99119.00;;;;330481;29;83386;-89
2022/09/03 00:51:00;;;;;;;;;;;20.00;99.90;19.90;99118.00;;;;331630;29;86234;-89
2022/09/03 00:51:28;;;;;;;;;;;20.00;99.90;20.10;99122.00;;;;331864;29;83454;-89
2022/09/03 00:51:53;;;;;;;;;;;20.00;99.90;20.00;99118.00;;;;331611;29;88223;-89
2022/09/03 00:52:20;;;;;;;;;;;19.90;99.90;20.00;99126.00;;;;332882;29;83514;-89
2022/09/03 00:53:04;;;;;;;;;;;20.00;99.90;19.90;99129.00;;;;332649;29;86280;-89
2022/09/03 00:53:44;;;;;;;;;;;19.90;99.90;19.90;99129.00;;;;332716;29;83476;-89
2022/09/03 00:54:07;;;;;;;;;;;19.90;99.90;19.90;99127.00;;;;334151;29;86288;-89
2022/09/03 00:54:40;;;;;;;;;;;19.90;99.90;19.90;99130.00;;;;333041;29;82591;-89
2022/09/03 00:55:24;;;;;;;;;;;19.90;99.90;19.90;99126.00;;;;333048;29;83084;-89
2022/09/03 00:56:30;;;;;;;;;;;19.90;99.90;20.00;99140.00;;;;333171;29;83463;-88
2022/09/03 00:56:46;;;;;;;;;;;19.90;99.90;19.90;99132.00;;;;330019;29;86531;-89
2022/09/03 00:57:14;;;;;;;;;;;19.90;99.90;20.00;99135.00;;;;327754;29;83696;-89
2022/09/03 00:57:53;;;;;;;;;;;19.90;99.90;20.00;99138.00;;;;329005;29;85994;-88
2022/09/03 00:58:36;;;;;;;;;;;19.90;99.90;19.90;99139.00;;;;328946;29;83612;-89
2022/09/03 00:59:24;;;;;;;;;;;19.90;99.90;19.90;99141.00;;;;326304;29;86947;-89
2022/09/03 01:00:08;;;;;;;;;;;19.90;99.90;19.90;99139.00;;;;327830;29;83378;-89
2022/09/03 01:00:33;;;;;;;;;;;19.90;99.90;19.90;99132.00;;;;355333;27;75515;-89
2022/09/03 01:00:44;;;;;;;;;;;19.90;99.90;19.90;99128.00;;;;352986;27;83782;-89
2022/09/03 01:00:56;;;;;;;;;;;19.90;99.90;20.00;99129.00;;;;348898;27;87018;-90
2022/09/03 01:01:40;;;;;;;;;;;19.90;99.90;20.00;99142.00;;;;347383;28;83261;-89
2022/09/03 01:02:01;;;;;;;;;;;19.90;99.90;19.90;99134.00;;;;343215;28;86345;-89
2022/09/03 01:02:21;;;;;;;;;;;19.90;99.90;19.90;99139.00;;;;343409;28;83165;-90
2022/09/03 01:02:44;;;;;;;;;;;19.90;99.90;19.90;99138.00;;;;340222;28;86165;-89
2022/09/03 01:03:07;;;;;;;;;;;19.90;99.90;19.90;99135.00;;;;343158;28;83639;-89
2022/09/03 01:03:50;;;;;;;;;;;19.90;99.90;20.00;99133.00;;;;341832;28;87064;-88
2022/09/03 01:04:20;;;;;;;;;;;19.90;99.90;19.90;99144.00;;;;343125;28;82398;-89
2022/09/03 01:04:44;;;;;;;;;;;19.90;99.90;20.00;99135.00;;;;343121;28;85981;-89
2022/09/03 01:05:09;;;;;;;;;;;19.90;99.90;20.00;99138.00;;;;343207;28;83239;-89
2022/09/03 01:05:33;;;;;;;;;;;19.90;99.90;20.00;99131.00;;;;342890;28;85384;-89
2022/09/03 01:06:09;;;;;;;;;;;19.90;99.90;20.00;99136.00;;;;344515;28;83231;-89
2022/09/03 01:06:44;;;;;;;;;;;19.90;99.90;19.90;99143.00;;;;344350;28;86250;-89
2022/09/03 01:07:14;;;;;;;;;;;19.90;99.90;19.90;99148.00;;;;343157;28;83288;-89
2022/09/03 01:07:51;;;;;;;;;;;19.90;99.90;19.90;99139.00;;;;345752;28;85344;-89
2022/09/03 01:08:31;;;;;;;;;;;19.90;99.90;19.90;99142.00;;;;345781;28;83392;-89
2022/09/03 01:08:50;;;;;;;;;;;19.90;99.90;20.00;99137.00;;;;344625;28;87568;-89
2022/09/03 01:09:28;;;;;;;;;;;19.90;99.90;19.90;99138.00;;;;344725;28;83372;-87
2022/09/03 01:09:52;;;;;;;;;;;19.90;99.90;19.90;99147.00;;;;341470;28;85298;-89
2022/09/03 01:10:10;;;;;;;;;;;19.90;99.90;19.90;99148.00;;;;341731;28;82468;-90
2022/09/03 01:10:26;;;;;;;;;;;19.90;99.90;19.90;99147.00;;;;341690;28;85792;-89
2022/09/03 01:10:55;;;;;;;;;;;19.80;99.90;19.80;99143.00;;;;341804;28;82698;-89
2022/09/03 01:11:31;;;;;;;;;;;19.90;99.90;19.80;99147.00;;;;340490;28;83743;-89
2022/09/03 01:12:05;;;;;;;;;;;19.90;99.90;19.90;99138.00;;;;341688;28;83457;-89
2022/09/03 01:12:32;;;;;;;;;;;19.80;99.90;19.90;99144.00;;;;343323;28;85075;-89
2022/09/03 01:13:20;;;;;;;;;;;19.80;99.90;19.80;99145.00;;;;344561;28;82487;-89
2022/09/03 01:13:40;;;;;;;;;;;19.80;99.90;19.80;99142.00;;;;340505;28;83527;-89
2022/09/03 01:14:10;;;;;;;;;;;19.80;99.90;19.80;99144.00;;;;340771;28;83332;-89
2022/09/03 01:14:42;;;;;;;;;;;19.80;99.90;19.90;99129.00;;;;340396;28;84998;-89
2022/09/03 01:15:03;;;;;;;;;;;19.80;99.90;19.90;99136.00;;;;340222;28;83368;-89
2022/09/03 01:15:36;;;;;;;;;;;19.80;99.90;20.00;99136.00;;;;339164;28;85976;-89
2022/09/03 01:16:15;;;;;;;;;;;19.90;99.90;19.90;99130.00;;;;339297;28;83333;-90
2022/09/03 01:16:47;;;;;;;;;;;19.90;99.90;20.00;99134.00;;;;340527;28;86203;-89
2022/09/03 01:17:23;;;;;;;;;;;19.90;99.90;20.00;99126.00;;;;340321;28;83843;-89
2022/09/03 01:17:54;;;;;;;;;;;19.90;99.90;20.00;99125.00;;;;339045;28;85494;-89
2022/09/03 01:18:11;;;;;;;;;;;19.90;99.90;20.00;99131.00;;;;339078;28;83431;-89
2022/09/03 01:18:38;;;;;;;;;;;19.90;99.90;20.10;99124.00;;;;339083;28;87743;-89
2022/09/03 01:18:53;;;;;;;;;;;19.90;99.90;20.10;99125.00;;;;337716;28;82555;-89
2022/09/03 01:19:10;;;;;;;;;;;19.90;99.90;20.00;99123.00;;;;340214;28;86956;-89
2022/09/03 01:19:44;;;;;;;;;;;19.90;99.90;20.00;99122.00;;;;340527;28;83491;-89
2022/09/03 01:20:00;;;;;;;;;;;19.90;99.90;20.00;99128.00;;;;340532;28;85269;-89
2022/09/03 01:20:27;;;;;;;;;;;19.90;99.90;20.00;99126.00;;;;340837;28;82444;-89
2022/09/03 01:21:03;;;;;;;;;;;19.90;99.90;20.00;99124.00;;;;341968;28;86098;-89
2022/09/03 01:21:23;;;;;;;;;;;19.90;99.90;19.80;99131.00;;;;340194;28;83618;-89
2022/09/03 01:21:55;;;;;;;;;;;19.90;99.90;19.80;99127.00;;;;341830;28;84610;-90
2022/09/03 01:22:06;;;;;;;;;;;19.90;99.90;19.90;99126.00;;;;341882;28;83381;-89
2022/09/03 01:22:43;;;;;;;;;;;19.80;99.90;19.90;99131.00;;;;340783;28;86391;-90
2022/09/03 01:23:34;;;;;;;;;;;19.80;99.90;19.90;99136.00;;;;339308;28;82477;-89
2022/09/03 01:24:17;;;;;;;;;;;19.80;99.90;19.80;99133.00;;;;337700;28;86658;-88
2022/09/03 01:25:10;;;;;;;;;;;19.80;99.90;19.80;99129.00;;;;341813;28;83342;-89
2022/09/03 01:25:42;;;;;;;;;;;19.80;99.90;19.80;99137.00;;;;340538;28;84791;-89
2022/09/03 01:26:03;;;;;;;;;;;19.80;99.90;19.80;99132.00;;;;338897;28;83442;-89
2022/09/03 01:26:27;;;;;;;;;;;19.80;99.90;19.80;99133.00;;;;340122;28;87943;-89
2022/09/03 01:26:42;;;;;;;;;;;19.80;99.90;19.80;99137.00;;;;341474;28;83484;-89
2022/09/03 01:27:14;;;;;;;;;;;19.80;99.90;19.80;99142.00;;;;340354;28;83993;-89
2022/09/03 01:27:25;;;;;;;;;;;19.80;99.90;19.80;99131.00;;;;340248;28;83590;-89
2022/09/03 01:28:01;;;;;;;;;;;19.80;99.90;19.80;99131.00;;;;340240;28;85975;-89
2022/09/03 01:28:33;;;;;;;;;;;19.80;99.90;19.80;99126.00;;;;337720;28;83596;-89
2022/09/03 01:28:53;;;;;;;;;;;19.70;99.90;19.80;99133.00;;;;340347;28;85836;-89
2022/09/03 01:29:23;;;;;;;;;;;19.80;99.90;19.80;99132.00;;;;340344;28;83456;-89
2022/09/03 01:30:02;;;;;;;;;;;19.80;99.90;19.90;99131.00;;;;341589;28;87492;-90
2022/09/03 01:30:18;;;;;;;;;;;19.80;99.90;19.80;99129.00;;;;339288;28;82519;-89
2022/09/03 01:30:30;;;;;;;;;;;19.80;99.90;19.80;99127.00;;;;338755;28;85823;-89
2022/09/03 01:30:46;;;;;;;;;;;19.80;99.90;19.80;99129.00;;;;340228;28;83401;-89
2022/09/03 01:31:01;;;;;;;;;;;19.80;99.90;19.80;99125.00;;;;340367;28;85229;-89
2022/09/03 01:31:50;;;;;;;;;;;19.80;99.90;19.80;99133.00;;;;340459;28;82302;-88
2022/09/03 01:32:31;;;;;;;;;;;19.80;99.90;19.80;99134.00;;;;342699;28;87116;-90
2022/09/03 01:32:55;;;;;;;;;;;19.80;99.90;19.80;99132.00;;;;337709;28;83389;-89
2022/09/03 01:33:31;;;;;;;;;;;19.80;99.90;19.80;99134.00;;;;340284;28;83953;-89
2022/09/03 01:34:03;;;;;;;;;;;19.80;99.90;19.80;99122.00;;;;338970;28;83579;-89
2022/09/03 01:34:21;;;;;;;;;;;19.80;99.90;19.80;99126.00;;;;340103;28;86585;-89
2022/09/03 01:34:53;;;;;;;;;;;19.80;99.90;19.80;99129.00;;;;340147;28;82637;-89
2022/09/03 01:35:15;;;;;;;;;;;19.80;99.90;19.80;99131.00;;;;338784;28;86598;-89
2022/09/03 01:35:38;;;;;;;;;;;19.70;99.90;19.80;99113.00;;;;339198;28;82535;-89
2022/09/03 01:35:56;;;;;;;;;;;19.70;99.90;19.80;99117.00;;;;339084;28;85969;-88
2022/09/03 01:36:41;;;;;;;;;;;19.80;99.90;19.80;99129.00;;;;340633;28;82437;-89
2022/09/03 01:37:10;;;;;;;;;;;19.70;99.90;19.80;99124.00;;;;338954;28;87026;-90
2022/09/03 01:37:50;;;;;;;;;;;19.70;99.90;19.80;99122.00;;;;340197;28;83417;-89
2022/09/03 01:38:34;;;;;;;;;;;19.70;99.90;19.80;99129.00;;;;339048;28;85725;-89
2022/09/03 01:38:50;;;;;;;;;;;19.70;99.90;19.70;99126.00;;;;339135;28;83405;-90
2022/09/03 01:39:04;;;;;;;;;;;19.70;99.90;19.70;99118.00;;;;338962;28;87345;-90
2022/09/03 01:39:32;;;;;;;;;;;19.70;99.90;19.70;99125.00;;;;336558;28;82603;-90
2022/09/03 01:40:05;;;;;;;;;;;19.70;99.90;19.80;99127.00;;;;337639;28;87322;-89
2022/09/03 01:40:27;;;;;;;;;;;19.70;99.90;19.80;99127.00;;;;337655;28;83432;-89
2022/09/03 01:42:12;;;;;;;;;;;19.70;99.90;19.80;99124.00;;;;341416;28;87073;-89
2022/09/03 01:42:14;;;;;;;;;;;19.70;99.90;19.80;99129.00;;;;343113;28;83469;-89
2022/09/03 01:42:35;;;;;;;;;;;19.70;99.90;20.00;99126.00;;;;344147;28;85768;-89
2022/09/03 01:42:50;;;;;;;;;;;19.70;99.90;20.00;99124.00;;;;344844;28;83156;-89
2022/09/03 01:43:31;;;;;;;;;;;19.80;99.90;19.90;99126.00;;;;344452;28;85972;-88
2022/09/03 01:44:08;;;;;;;;;;;19.80;99.90;19.90;99126.00;;;;342892;28;82450;-89
2022/09/03 01:44:31;;;;;;;;;;;19.80;99.90;19.80;99131.00;;;;343024;28;86081;-90
2022/09/03 01:45:08;;;;;;;;;;;19.80;99.90;19.80;99117.00;;;;338845;28;82548;-89
2022/09/03 01:45:40;;;;;;;;;;;19.80;99.90;19.80;99123.00;;;;340424;28;84605;-89
2022/09/03 01:46:07;;;;;;;;;;;19.80;99.90;19.80;99130.00;;;;340374;28;82525;-88
2022/09/03 01:46:22;;;;;;;;;;;19.80;99.90;19.80;99124.00;;;;340325;28;87409;-89
2022/09/03 01:46:38;;;;;;;;;;;19.70;99.90;19.80;99114.00;;;;341715;28;82577;-89
2022/09/03 01:47:15;;;;;;;;;;;19.70;99.90;19.80;99120.00;;;;339220;28;87247;-89
2022/09/03 01:47:58;;;;;;;;;;;19.70;99.90;19.80;99128.00;;;;336385;28;83408;-90
2022/09/03 01:48:47;;;;;;;;;;;19.70;99.90;19.80;99129.00;;;;339526;28;85690;-89
2022/09/03 01:49:23;;;;;;;;;;;19.70;99.90;19.80;99130.00;;;;338042;28;83333;-89
2022/09/03 01:49:40;;;;;;;;;;;19.70;99.90;19.80;99126.00;;;;339078;28;85468;-89
2022/09/03 01:50:17;;;;;;;;;;;19.70;99.90;19.80;99128.00;;;;340068;28;83681;-89
2022/09/03 01:50:42;;;;;;;;;;;19.70;99.90;19.70;99123.00;;;;340027;28;86262;-89
2022/09/03 01:50:59;;;;;;;;;;;19.70;99.90;19.70;99125.00;;;;340294;28;83380;-89
2022/09/03 01:51:24;;;;;;;;;;;19.70;99.90;19.70;99126.00;;;;338836;28;86075;-89
2022/09/03 01:51:36;;;;;;;;;;;19.70;99.90;19.70;99128.00;;;;336933;28;82339;-89
2022/09/03 01:52:14;;;;;;;;;;;19.70;99.90;19.70;99120.00;;;;340539;28;87071;-89
2022/09/03 01:52:48;;;;;;;;;;;19.70;99.90;19.70;99125.00;;;;333904;29;83441;-89
2022/09/03 01:53:31;;;;;;;;;;;19.70;99.90;19.70;99127.00;;;;332960;29;86676;-88
2022/09/03 01:54:10;;;;;;;;;;;19.70;99.90;19.70;99132.00;;;;332448;29;83525;-89
2022/09/03 01:54:41;;;;;;;;;;;19.70;99.90;19.70;99129.00;;;;334013;29;85455;-89
2022/09/03 01:55:01;;;;;;;;;;;19.70;99.90;19.70;99129.00;;;;335566;29;83591;-90
2022/09/03 01:55:35;;;;;;;;;;;19.70;99.90;19.70;99130.00;;;;335342;29;85042;-89
2022/09/03 01:55:56;;;;;;;;;;;19.70;99.90;19.70;99127.00;;;;335571;29;82538;-89
2022/09/03 01:56:35;;;;;;;;;;;19.70;99.90;19.80;99123.00;;;;335300;29;86253;-90
2022/09/03 01:57:19;;;;;;;;;;;19.70;99.90;19.70;99126.00;;;;335219;29;82507;-89
2022/09/03 01:58:20;;;;;;;;;;;19.60;99.90;19.70;99137.00;;;;335243;29;85439;-89
2022/09/03 01:58:33;;;;;;;;;;;19.70;99.90;19.70;99132.00;;;;335383;29;82529;-89
2022/09/03 01:58:53;;;;;;;;;;;19.60;99.90;19.70;99129.00;;;;333977;29;85437;-89
2022/09/03 01:59:05;;;;;;;;;;;19.60;99.90;19.60;99135.00;;;;334207;29;82572;-89
2022/09/03 01:59:26;;;;;;;;;;;19.60;99.90;19.70;99130.00;;;;335185;29;86490;-89
2022/09/03 02:00:09;;;;;;;;;;;19.60;99.90;19.70;99138.00;;;;334491;29;82530;-89
2022/09/03 02:00:20;;;;;;;;;;;19.60;99.90;19.70;99136.00;;;;335211;29;87085;-90
2022/09/03 02:00:30;;;;;;;;;;;19.60;99.90;19.70;99136.00;;;;336705;28;82704;-90
2022/09/03 02:00:42;;;;;;;;;;;19.60;99.90;19.70;99135.00;;;;335480;29;84882;-89
2022/09/03 02:01:02;;;;;;;;;;;19.60;99.90;19.70;99134.00;;;;332855;29;82641;-89
2022/09/03 02:01:16;;;;;;;;;;;19.60;99.90;19.70;99138.00;;;;332530;29;85399;-88
2022/09/03 02:01:36;;;;;;;;;;;19.60;99.90;19.70;99138.00;;;;332591;29;82780;-89
2022/09/03 02:01:58;;;;;;;;;;;19.60;99.90;19.60;99132.00;;;;332980;29;85158;-89
2022/09/03 02:02:22;;;;;;;;;;;19.60;99.90;19.70;99134.00;;;;332938;29;83413;-89
2022/09/03 02:02:34;;;;;;;;;;;19.60;99.90;19.70;99135.00;;;;334036;29;85726;-88
2022/09/03 02:02:47;;;;;;;;;;;19.60;99.90;19.60;99139.00;;;;335579;29;82641;-89
2022/09/03 02:03:02;;;;;;;;;;;19.60;99.90;19.60;99137.00;;;;335411;29;85691;-90
2022/09/03 02:03:13;;;;;;;;;;;19.60;99.90;19.60;99133.00;;;;334030;29;83465;-89
2022/09/03 02:03:24;;;;;;;;;;;19.60;99.90;19.60;99140.00;;;;334094;29;85283;-89